sensor_id;sensor_type;location;lat;lon;timestamp;temperature;humidity
68450;SHT30;67758;39.572;2.652;2024-01-16T00:01:48;13.51;94.86
68450;SHT30;67758;39.572;2.652;2024-01-16T00:04:14;13.54;94.70
68450;SHT30;67758;39.572;2.652;2024-01-16T00:06:40;13.64;94.18
68450;SHT30;67758;39.572;2.652;2024-01-16T00:09:07;13.61;94.28
68450;SHT30;67758;39.572;2.652;2024-01-16T00:11:32;13.65;94.32
68450;SHT30;67758;39.572;2.652;2024-01-16T00:13:58;13.57;94.37
68450;SHT30;67758;39.572;2.652;2024-01-16T00:16:24;13.54;94.55
68450;SHT30;67758;39.572;2.652;2024-01-16T00:18:50;13.55;94.66
68450;SHT30;67758;39.572;2.652;2024-01-16T00:21:15;13.58;94.39
68450;SHT30;67758;39.572;2.652;2024-01-16T00:23:41;13.61;94.29
68450;SHT30;67758;39.572;2.652;2024-01-16T00:26:07;13.58;94.21
68450;SHT30;67758;39.572;2.652;2024-01-16T00:28:32;13.58;94.25
68450;SHT30;67758;39.572;2.652;2024-01-16T00:30:58;13.50;94.19
68450;SHT30;67758;39.572;2.652;2024-01-16T00:33:24;13.42;94.23
68450;SHT30;67758;39.572;2.652;2024-01-16T00:35:49;13.44;94.33
68450;SHT30;67758;39.572;2.652;2024-01-16T00:38:15;13.40;94.39
68450;SHT30;67758;39.572;2.652;2024-01-16T00:40:41;13.28;94.45
68450;SHT30;67758;39.572;2.652;2024-01-16T00:43:06;13.18;94.56
68450;SHT30;67758;39.572;2.652;2024-01-16T00:45:32;13.20;95.08
68450;SHT30;67758;39.572;2.652;2024-01-16T00:47:58;13.18;95.04
68450;SHT30;67758;39.572;2.652;2024-01-16T00:50:23;13.23;95.25
68450;SHT30;67758;39.572;2.652;2024-01-16T00:52:50;13.14;95.12
68450;SHT30;67758;39.572;2.652;2024-01-16T00:55:15;13.10;95.29
68450;SHT30;67758;39.572;2.652;2024-01-16T00:57:41;13.11;95.40
68450;SHT30;67758;39.572;2.652;2024-01-16T01:00:07;13.04;95.34
68450;SHT30;67758;39.572;2.652;2024-01-16T01:02:33;13.17;95.70
68450;SHT30;67758;39.572;2.652;2024-01-16T01:04:58;13.18;95.85
68450;SHT30;67758;39.572;2.652;2024-01-16T01:07:24;13.18;95.75
68450;SHT30;67758;39.572;2.652;2024-01-16T01:09:51;13.17;95.70
68450;SHT30;67758;39.572;2.652;2024-01-16T01:12:16;13.18;95.64
68450;SHT30;67758;39.572;2.652;2024-01-16T01:14:42;13.15;95.52
68450;SHT30;67758;39.572;2.652;2024-01-16T01:17:07;13.13;95.80
68450;SHT30;67758;39.572;2.652;2024-01-16T01:19:33;13.10;95.80
68450;SHT30;67758;39.572;2.652;2024-01-16T01:21:59;13.15;95.85
68450;SHT30;67758;39.572;2.652;2024-01-16T01:24:25;13.18;95.68
68450;SHT30;67758;39.572;2.652;2024-01-16T01:26:50;13.20;95.55
68450;SHT30;67758;39.572;2.652;2024-01-16T01:29:16;13.15;95.63
68450;SHT30;67758;39.572;2.652;2024-01-16T01:31:45;13.13;95.52
68450;SHT30;67758;39.572;2.652;2024-01-16T01:34:12;13.07;95.59
68450;SHT30;67758;39.572;2.652;2024-01-16T01:36:38;13.01;95.40
68450;SHT30;67758;39.572;2.652;2024-01-16T01:39:03;12.94;95.15
68450;SHT30;67758;39.572;2.652;2024-01-16T01:41:29;12.86;94.83
68450;SHT30;67758;39.572;2.652;2024-01-16T01:43:54;12.89;94.88
68450;SHT30;67758;39.572;2.652;2024-01-16T01:46:21;12.90;94.80
68450;SHT30;67758;39.572;2.652;2024-01-16T01:48:47;12.94;94.94
68450;SHT30;67758;39.572;2.652;2024-01-16T01:51:14;13.14;94.70
68450;SHT30;67758;39.572;2.652;2024-01-16T01:53:44;13.20;94.62
68450;SHT30;67758;39.572;2.652;2024-01-16T01:56:18;13.15;94.67
68450;SHT30;67758;39.572;2.652;2024-01-16T01:58:45;13.08;94.58
68450;SHT30;67758;39.572;2.652;2024-01-16T02:01:12;13.08;94.75
68450;SHT30;67758;39.572;2.652;2024-01-16T02:03:45;13.13;94.75
68450;SHT30;67758;39.572;2.652;2024-01-16T02:06:12;13.14;94.59
68450;SHT30;67758;39.572;2.652;2024-01-16T02:08:39;13.10;94.56
68450;SHT30;67758;39.572;2.652;2024-01-16T02:11:05;13.00;94.58
68450;SHT30;67758;39.572;2.652;2024-01-16T02:13:31;12.94;94.71
68450;SHT30;67758;39.572;2.652;2024-01-16T02:15:57;12.89;94.91
68450;SHT30;67758;39.572;2.652;2024-01-16T02:18:22;12.86;94.61
68450;SHT30;67758;39.572;2.652;2024-01-16T02:20:48;12.84;94.62
68450;SHT30;67758;39.572;2.652;2024-01-16T02:23:15;12.83;94.50
68450;SHT30;67758;39.572;2.652;2024-01-16T02:25:41;12.76;94.32
68450;SHT30;67758;39.572;2.652;2024-01-16T02:28:07;12.77;94.66
68450;SHT30;67758;39.572;2.652;2024-01-16T02:30:33;12.79;94.58
68450;SHT30;67758;39.572;2.652;2024-01-16T02:32:59;12.69;94.74
68450;SHT30;67758;39.572;2.652;2024-01-16T02:35:25;12.70;95.35
68450;SHT30;67758;39.572;2.652;2024-01-16T02:37:50;12.70;95.48
68450;SHT30;67758;39.572;2.652;2024-01-16T02:40:16;12.72;95.67
68450;SHT30;67758;39.572;2.652;2024-01-16T02:42:42;12.73;95.74
68450;SHT30;67758;39.572;2.652;2024-01-16T02:45:08;12.79;95.70
68450;SHT30;67758;39.572;2.652;2024-01-16T02:47:34;12.76;95.76
68450;SHT30;67758;39.572;2.652;2024-01-16T02:50:00;12.72;95.91
68450;SHT30;67758;39.572;2.652;2024-01-16T02:52:26;12.69;96.18
68450;SHT30;67758;39.572;2.652;2024-01-16T02:54:51;12.69;96.23
68450;SHT30;67758;39.572;2.652;2024-01-16T02:57:17;12.66;96.76
68450;SHT30;67758;39.572;2.652;2024-01-16T02:59:46;12.64;96.67
68450;SHT30;67758;39.572;2.652;2024-01-16T03:02:12;12.72;97.03
68450;SHT30;67758;39.572;2.652;2024-01-16T03:04:39;12.64;96.75
68450;SHT30;67758;39.572;2.652;2024-01-16T03:07:05;12.63;96.69
68450;SHT30;67758;39.572;2.652;2024-01-16T03:09:31;12.49;96.17
68450;SHT30;67758;39.572;2.652;2024-01-16T03:11:56;12.45;96.11
68450;SHT30;67758;39.572;2.652;2024-01-16T03:14:23;12.38;95.79
68450;SHT30;67758;39.572;2.652;2024-01-16T03:16:48;12.28;95.52
68450;SHT30;67758;39.572;2.652;2024-01-16T03:19:14;12.25;95.34
68450;SHT30;67758;39.572;2.652;2024-01-16T03:21:40;12.26;95.58
68450;SHT30;67758;39.572;2.652;2024-01-16T03:24:07;12.36;95.75
68450;SHT30;67758;39.572;2.652;2024-01-16T03:26:32;12.32;95.63
68450;SHT30;67758;39.572;2.652;2024-01-16T03:28:58;12.45;95.76
68450;SHT30;67758;39.572;2.652;2024-01-16T03:31:24;12.50;95.75
68450;SHT30;67758;39.572;2.652;2024-01-16T03:33:50;12.53;95.68
68450;SHT30;67758;39.572;2.652;2024-01-16T03:36:15;12.49;95.74
68450;SHT30;67758;39.572;2.652;2024-01-16T03:38:43;12.45;95.87
68450;SHT30;67758;39.572;2.652;2024-01-16T03:41:10;12.40;96.14
68450;SHT30;67758;39.572;2.652;2024-01-16T03:43:36;12.39;96.32
68450;SHT30;67758;39.572;2.652;2024-01-16T03:46:01;12.45;96.49
68450;SHT30;67758;39.572;2.652;2024-01-16T03:48:27;12.53;96.33
68450;SHT30;67758;39.572;2.652;2024-01-16T03:50:53;12.59;96.46
68450;SHT30;67758;39.572;2.652;2024-01-16T03:53:20;12.64;96.25
68450;SHT30;67758;39.572;2.652;2024-01-16T03:55:47;12.57;96.05
68450;SHT30;67758;39.572;2.652;2024-01-16T03:58:12;12.56;96.06
68450;SHT30;67758;39.572;2.652;2024-01-16T04:00:38;12.57;96.12
68450;SHT30;67758;39.572;2.652;2024-01-16T04:03:04;12.70;96.59
68450;SHT30;67758;39.572;2.652;2024-01-16T04:05:29;12.79;96.35
68450;SHT30;67758;39.572;2.652;2024-01-16T04:07:56;12.72;96.31
68450;SHT30;67758;39.572;2.652;2024-01-16T04:10:22;12.72;96.44
68450;SHT30;67758;39.572;2.652;2024-01-16T04:12:47;12.69;96.48
68450;SHT30;67758;39.572;2.652;2024-01-16T04:15:13;12.66;96.51
68450;SHT30;67758;39.572;2.652;2024-01-16T04:17:39;12.66;96.94
68450;SHT30;67758;39.572;2.652;2024-01-16T04:20:05;12.64;96.93
68450;SHT30;67758;39.572;2.652;2024-01-16T04:22:32;12.56;97.00
68450;SHT30;67758;39.572;2.652;2024-01-16T04:24:58;12.48;96.95
68450;SHT30;67758;39.572;2.652;2024-01-16T04:27:24;12.49;97.11
68450;SHT30;67758;39.572;2.652;2024-01-16T04:29:50;12.55;97.34
68450;SHT30;67758;39.572;2.652;2024-01-16T04:32:16;12.57;97.20
68450;SHT30;67758;39.572;2.652;2024-01-16T04:34:42;12.57;97.35
68450;SHT30;67758;39.572;2.652;2024-01-16T04:37:07;12.57;97.23
68450;SHT30;67758;39.572;2.652;2024-01-16T04:39:33;12.56;97.12
68450;SHT30;67758;39.572;2.652;2024-01-16T04:41:59;12.55;97.19
68450;SHT30;67758;39.572;2.652;2024-01-16T04:44:24;12.52;97.27
68450;SHT30;67758;39.572;2.652;2024-01-16T04:46:50;12.45;97.28
68450;SHT30;67758;39.572;2.652;2024-01-16T04:49:15;12.45;97.36
68450;SHT30;67758;39.572;2.652;2024-01-16T04:51:41;12.43;97.29
68450;SHT30;67758;39.572;2.652;2024-01-16T04:54:07;12.29;97.27
68450;SHT30;67758;39.572;2.652;2024-01-16T04:56:33;12.26;97.28
68450;SHT30;67758;39.572;2.652;2024-01-16T04:58:58;12.28;97.49
68450;SHT30;67758;39.572;2.652;2024-01-16T05:01:24;12.42;97.49
68450;SHT30;67758;39.572;2.652;2024-01-16T05:03:50;12.49;97.47
68450;SHT30;67758;39.572;2.652;2024-01-16T05:06:16;12.60;97.15
68450;SHT30;67758;39.572;2.652;2024-01-16T05:08:42;12.48;96.92
68450;SHT30;67758;39.572;2.652;2024-01-16T05:11:08;12.38;96.85
68450;SHT30;67758;39.572;2.652;2024-01-16T05:13:34;12.32;96.82
68450;SHT30;67758;39.572;2.652;2024-01-16T05:16:00;12.25;96.83
68450;SHT30;67758;39.572;2.652;2024-01-16T05:18:26;12.12;96.20
68450;SHT30;67758;39.572;2.652;2024-01-16T05:20:51;12.17;96.66
68450;SHT30;67758;39.572;2.652;2024-01-16T05:23:17;12.14;96.56
68450;SHT30;67758;39.572;2.652;2024-01-16T05:25:43;12.21;96.67
68450;SHT30;67758;39.572;2.652;2024-01-16T05:28:09;12.12;96.53
68450;SHT30;67758;39.572;2.652;2024-01-16T05:30:35;12.09;96.47
68450;SHT30;67758;39.572;2.652;2024-01-16T05:33:01;12.12;96.80
68450;SHT30;67758;39.572;2.652;2024-01-16T05:35:27;12.11;96.88
68450;SHT30;67758;39.572;2.652;2024-01-16T05:37:56;12.15;96.81
68450;SHT30;67758;39.572;2.652;2024-01-16T05:40:22;12.15;96.83
68450;SHT30;67758;39.572;2.652;2024-01-16T05:42:48;12.14;96.66
68450;SHT30;67758;39.572;2.652;2024-01-16T05:45:15;12.06;96.81
68450;SHT30;67758;39.572;2.652;2024-01-16T05:47:40;12.17;96.87
68450;SHT30;67758;39.572;2.652;2024-01-16T05:50:06;12.28;97.04
68450;SHT30;67758;39.572;2.652;2024-01-16T05:52:32;12.26;96.71
68450;SHT30;67758;39.572;2.652;2024-01-16T05:54:58;12.21;96.49
68450;SHT30;67758;39.572;2.652;2024-01-16T05:57:25;12.26;96.60
68450;SHT30;67758;39.572;2.652;2024-01-16T05:59:51;12.28;96.63
68450;SHT30;67758;39.572;2.652;2024-01-16T06:02:17;12.29;96.42
68450;SHT30;67758;39.572;2.652;2024-01-16T06:04:42;12.28;96.43
68450;SHT30;67758;39.572;2.652;2024-01-16T06:07:08;12.22;96.27
68450;SHT30;67758;39.572;2.652;2024-01-16T06:09:38;12.18;96.11
68450;SHT30;67758;39.572;2.652;2024-01-16T06:12:05;12.17;96.41
68450;SHT30;67758;39.572;2.652;2024-01-16T06:14:32;12.21;96.49
68450;SHT30;67758;39.572;2.652;2024-01-16T06:16:58;12.19;96.46
68450;SHT30;67758;39.572;2.652;2024-01-16T06:19:24;12.08;95.70
68450;SHT30;67758;39.572;2.652;2024-01-16T06:21:49;12.15;96.26
68450;SHT30;67758;39.572;2.652;2024-01-16T06:24:15;12.25;96.51
68450;SHT30;67758;39.572;2.652;2024-01-16T06:26:41;12.25;96.70
68450;SHT30;67758;39.572;2.652;2024-01-16T06:29:07;12.39;96.47
68450;SHT30;67758;39.572;2.652;2024-01-16T06:31:33;12.26;95.91
68450;SHT30;67758;39.572;2.652;2024-01-16T06:33:59;12.48;97.42
68450;SHT30;67758;39.572;2.652;2024-01-16T06:36:25;12.55;96.88
68450;SHT30;67758;39.572;2.652;2024-01-16T06:38:50;12.52;97.03
68450;SHT30;67758;39.572;2.652;2024-01-16T06:41:16;12.49;96.84
68450;SHT30;67758;39.572;2.652;2024-01-16T06:43:42;12.42;96.78
68450;SHT30;67758;39.572;2.652;2024-01-16T06:46:10;12.48;96.83
68450;SHT30;67758;39.572;2.652;2024-01-16T06:48:41;12.45;96.87
68450;SHT30;67758;39.572;2.652;2024-01-16T06:51:07;12.39;97.07
68450;SHT30;67758;39.572;2.652;2024-01-16T06:53:33;12.38;97.18
68450;SHT30;67758;39.572;2.652;2024-01-16T06:56:00;12.33;97.09
68450;SHT30;67758;39.572;2.652;2024-01-16T06:58:25;12.30;96.94
68450;SHT30;67758;39.572;2.652;2024-01-16T07:00:54;12.30;96.92
68450;SHT30;67758;39.572;2.652;2024-01-16T07:03:23;12.30;97.24
68450;SHT30;67758;39.572;2.652;2024-01-16T07:05:49;12.32;97.30
68450;SHT30;67758;39.572;2.652;2024-01-16T07:08:17;12.38;97.07
68450;SHT30;67758;39.572;2.652;2024-01-16T07:10:43;12.38;96.87
68450;SHT30;67758;39.572;2.652;2024-01-16T07:13:09;12.42;96.94
68450;SHT30;67758;39.572;2.652;2024-01-16T07:15:40;12.43;96.83
68450;SHT30;67758;39.572;2.652;2024-01-16T07:18:05;12.49;96.89
68450;SHT30;67758;39.572;2.652;2024-01-16T07:20:31;12.49;96.94
68450;SHT30;67758;39.572;2.652;2024-01-16T07:22:56;12.59;96.94
68450;SHT30;67758;39.572;2.652;2024-01-16T07:25:24;12.59;96.70
68450;SHT30;67758;39.572;2.652;2024-01-16T07:27:50;12.53;96.58
68450;SHT30;67758;39.572;2.652;2024-01-16T07:30:16;12.56;96.75
68450;SHT30;67758;39.572;2.652;2024-01-16T07:32:41;12.64;96.92
68450;SHT30;67758;39.572;2.652;2024-01-16T07:35:10;12.75;97.07
68450;SHT30;67758;39.572;2.652;2024-01-16T07:37:38;13.03;98.22
68450;SHT30;67758;39.572;2.652;2024-01-16T07:40:04;13.06;96.72
68450;SHT30;67758;39.572;2.652;2024-01-16T07:42:34;13.23;97.32
68450;SHT30;67758;39.572;2.652;2024-01-16T07:45:00;13.35;96.85
68450;SHT30;67758;39.572;2.652;2024-01-16T07:47:30;13.38;96.11
68450;SHT30;67758;39.572;2.652;2024-01-16T07:49:57;13.44;95.75
68450;SHT30;67758;39.572;2.652;2024-01-16T07:52:27;13.50;96.25
68450;SHT30;67758;39.572;2.652;2024-01-16T07:54:53;13.55;95.42
68450;SHT30;67758;39.572;2.652;2024-01-16T07:57:24;13.50;95.32
68450;SHT30;67758;39.572;2.652;2024-01-16T07:59:52;13.55;95.24
68450;SHT30;67758;39.572;2.652;2024-01-16T08:02:18;13.64;95.49
68450;SHT30;67758;39.572;2.652;2024-01-16T08:04:46;13.69;95.12
68450;SHT30;67758;39.572;2.652;2024-01-16T08:07:11;13.72;94.77
68450;SHT30;67758;39.572;2.652;2024-01-16T08:09:37;13.81;94.65
68450;SHT30;67758;39.572;2.652;2024-01-16T08:12:03;13.83;94.29
68450;SHT30;67758;39.572;2.652;2024-01-16T08:14:29;13.87;94.11
68450;SHT30;67758;39.572;2.652;2024-01-16T08:16:57;13.87;93.93
68450;SHT30;67758;39.572;2.652;2024-01-16T08:19:22;13.87;93.83
68450;SHT30;67758;39.572;2.652;2024-01-16T08:21:48;13.90;93.95
68450;SHT30;67758;39.572;2.652;2024-01-16T08:24:14;13.95;93.89
68450;SHT30;67758;39.572;2.652;2024-01-16T08:26:39;13.93;93.91
68450;SHT30;67758;39.572;2.652;2024-01-16T08:29:05;13.96;93.56
68450;SHT30;67758;39.572;2.652;2024-01-16T08:31:30;13.98;93.48
68450;SHT30;67758;39.572;2.652;2024-01-16T08:33:56;13.95;93.65
68450;SHT30;67758;39.572;2.652;2024-01-16T08:36:22;13.98;93.80
68450;SHT30;67758;39.572;2.652;2024-01-16T08:38:48;14.09;93.82
68450;SHT30;67758;39.572;2.652;2024-01-16T08:41:14;14.29;94.72
68450;SHT30;67758;39.572;2.652;2024-01-16T08:43:39;14.64;95.43
68450;SHT30;67758;39.572;2.652;2024-01-16T08:46:05;15.07;95.51
68450;SHT30;67758;39.572;2.652;2024-01-16T08:48:30;15.38;94.82
68450;SHT30;67758;39.572;2.652;2024-01-16T08:50:56;15.59;94.34
68450;SHT30;67758;39.572;2.652;2024-01-16T08:53:22;15.69;93.84
68450;SHT30;67758;39.572;2.652;2024-01-16T08:55:48;15.76;93.51
68450;SHT30;67758;39.572;2.652;2024-01-16T08:58:14;15.83;93.19
68450;SHT30;67758;39.572;2.652;2024-01-16T09:00:40;15.96;92.67
68450;SHT30;67758;39.572;2.652;2024-01-16T09:03:06;16.04;92.33
68450;SHT30;67758;39.572;2.652;2024-01-16T09:05:33;16.13;91.95
68450;SHT30;67758;39.572;2.652;2024-01-16T09:08:01;16.18;91.81
68450;SHT30;67758;39.572;2.652;2024-01-16T09:10:28;16.21;91.52
68450;SHT30;67758;39.572;2.652;2024-01-16T09:12:54;16.20;91.42
68450;SHT30;67758;39.572;2.652;2024-01-16T09:15:20;16.27;91.20
68450;SHT30;67758;39.572;2.652;2024-01-16T09:17:46;16.34;91.02
68450;SHT30;67758;39.572;2.652;2024-01-16T09:20:12;16.51;90.60
68450;SHT30;67758;39.572;2.652;2024-01-16T09:22:37;16.67;90.24
68450;SHT30;67758;39.572;2.652;2024-01-16T09:25:03;16.79;89.67
68450;SHT30;67758;39.572;2.652;2024-01-16T09:27:29;16.91;89.14
68450;SHT30;67758;39.572;2.652;2024-01-16T09:29:54;16.98;88.94
68450;SHT30;67758;39.572;2.652;2024-01-16T09:32:20;17.03;88.76
68450;SHT30;67758;39.572;2.652;2024-01-16T09:34:46;17.08;88.43
68450;SHT30;67758;39.572;2.652;2024-01-16T09:37:11;17.16;88.27
68450;SHT30;67758;39.572;2.652;2024-01-16T09:39:40;17.23;87.81
68450;SHT30;67758;39.572;2.652;2024-01-16T09:42:06;17.32;87.56
68450;SHT30;67758;39.572;2.652;2024-01-16T09:44:32;17.42;87.26
68450;SHT30;67758;39.572;2.652;2024-01-16T09:47:01;17.59;86.89
68450;SHT30;67758;39.572;2.652;2024-01-16T09:49:27;17.67;86.40
68450;SHT30;67758;39.572;2.652;2024-01-16T09:51:54;17.66;86.25
68450;SHT30;67758;39.572;2.652;2024-01-16T09:54:20;17.69;86.46
68450;SHT30;67758;39.572;2.652;2024-01-16T09:56:48;17.74;86.20
68450;SHT30;67758;39.572;2.652;2024-01-16T09:59:17;17.85;85.82
68450;SHT30;67758;39.572;2.652;2024-01-16T10:01:48;17.94;85.60
68450;SHT30;67758;39.572;2.652;2024-01-16T10:04:15;18.05;85.29
68450;SHT30;67758;39.572;2.652;2024-01-16T10:06:41;18.09;85.13
68450;SHT30;67758;39.572;2.652;2024-01-16T10:09:09;18.01;85.17
68450;SHT30;67758;39.572;2.652;2024-01-16T10:11:38;18.09;85.26
68450;SHT30;67758;39.572;2.652;2024-01-16T10:14:03;18.02;85.14
68450;SHT30;67758;39.572;2.652;2024-01-16T10:16:59;18.19;84.72
68450;SHT30;67758;39.572;2.652;2024-01-16T10:19:37;18.51;81.67
68450;SHT30;67758;39.572;2.652;2024-01-16T10:22:12;18.80;81.61
68450;SHT30;67758;39.572;2.652;2024-01-16T10:24:37;18.75;82.39
68450;SHT30;67758;39.572;2.652;2024-01-16T10:27:03;18.70;82.40
68450;SHT30;67758;39.572;2.652;2024-01-16T10:29:29;18.67;81.70
68450;SHT30;67758;39.572;2.652;2024-01-16T10:31:58;18.76;81.92
68450;SHT30;67758;39.572;2.652;2024-01-16T10:34:24;18.87;81.78
68450;SHT30;67758;39.572;2.652;2024-01-16T10:36:52;18.83;81.83
68450;SHT30;67758;39.572;2.652;2024-01-16T10:39:23;18.96;81.51
68450;SHT30;67758;39.572;2.652;2024-01-16T10:41:56;19.83;78.69
68450;SHT30;67758;39.572;2.652;2024-01-16T10:44:22;20.25;77.04
68450;SHT30;67758;39.572;2.652;2024-01-16T10:46:48;20.61;75.81
68450;SHT30;67758;39.572;2.652;2024-01-16T10:49:14;21.02;74.65
68450;SHT30;67758;39.572;2.652;2024-01-16T10:51:42;21.81;72.38
68450;SHT30;67758;39.572;2.652;2024-01-16T10:54:11;22.03;71.30
68450;SHT30;67758;39.572;2.652;2024-01-16T10:56:45;22.36;70.35
68450;SHT30;67758;39.572;2.652;2024-01-16T10:59:33;22.07;69.70
68450;SHT30;67758;39.572;2.652;2024-01-16T11:02:01;22.50;69.75
68450;SHT30;67758;39.572;2.652;2024-01-16T11:04:29;22.51;69.88
68450;SHT30;67758;39.572;2.652;2024-01-16T11:06:55;22.23;70.35
68450;SHT30;67758;39.572;2.652;2024-01-16T11:09:21;22.20;70.76
68450;SHT30;67758;39.572;2.652;2024-01-16T11:11:47;22.29;69.72
68450;SHT30;67758;39.572;2.652;2024-01-16T11:14:14;22.67;69.40
68450;SHT30;67758;39.572;2.652;2024-01-16T11:16:40;22.96;68.60
68450;SHT30;67758;39.572;2.652;2024-01-16T11:19:08;23.16;67.80
68450;SHT30;67758;39.572;2.652;2024-01-16T11:21:35;23.46;66.47
68450;SHT30;67758;39.572;2.652;2024-01-16T11:24:00;23.45;65.53
68450;SHT30;67758;39.572;2.652;2024-01-16T11:28:58;24.41;64.00
68450;SHT30;67758;39.572;2.652;2024-01-16T11:31:29;24.01;63.92
68450;SHT30;67758;39.572;2.652;2024-01-16T11:33:56;23.89;64.48
68450;SHT30;67758;39.572;2.652;2024-01-16T11:36:57;23.98;64.09
68450;SHT30;67758;39.572;2.652;2024-01-16T11:39:26;23.77;64.84
68450;SHT30;67758;39.572;2.652;2024-01-16T11:41:58;24.00;64.50
68450;SHT30;67758;39.572;2.652;2024-01-16T11:44:46;24.08;64.14
68450;SHT30;67758;39.572;2.652;2024-01-16T11:47:22;24.06;64.36
68450;SHT30;67758;39.572;2.652;2024-01-16T11:49:51;23.84;64.05
68450;SHT30;67758;39.572;2.652;2024-01-16T11:52:39;23.77;64.78
68450;SHT30;67758;39.572;2.652;2024-01-16T11:55:26;23.56;64.66
68450;SHT30;67758;39.572;2.652;2024-01-16T12:00:45;23.48;65.53
68450;SHT30;67758;39.572;2.652;2024-01-16T12:03:13;23.87;65.16
68450;SHT30;67758;39.572;2.652;2024-01-16T12:05:42;24.32;63.81
68450;SHT30;67758;39.572;2.652;2024-01-16T12:08:09;24.78;62.25
68450;SHT30;67758;39.572;2.652;2024-01-16T12:10:46;24.69;62.51
68450;SHT30;67758;39.572;2.652;2024-01-16T12:13:15;24.34;63.06
68450;SHT30;67758;39.572;2.652;2024-01-16T12:15:41;24.62;62.55
68450;SHT30;67758;39.572;2.652;2024-01-16T12:18:07;24.75;61.57
68450;SHT30;67758;39.572;2.652;2024-01-16T12:20:35;24.93;61.28
68450;SHT30;67758;39.572;2.652;2024-01-16T12:23:05;25.23;59.65
68450;SHT30;67758;39.572;2.652;2024-01-16T12:25:33;25.81;58.77
68450;SHT30;67758;39.572;2.652;2024-01-16T12:28:01;26.22;57.87
68450;SHT30;67758;39.572;2.652;2024-01-16T12:30:35;26.38;57.63
68450;SHT30;67758;39.572;2.652;2024-01-16T12:33:05;26.02;57.76
68450;SHT30;67758;39.572;2.652;2024-01-16T12:35:35;25.83;57.67
68450;SHT30;67758;39.572;2.652;2024-01-16T12:38:02;25.84;58.43
68450;SHT30;67758;39.572;2.652;2024-01-16T12:40:28;24.79;59.46
68450;SHT30;67758;39.572;2.652;2024-01-16T12:42:54;24.45;61.15
68450;SHT30;67758;39.572;2.652;2024-01-16T12:45:20;24.21;61.70
68450;SHT30;67758;39.572;2.652;2024-01-16T12:47:53;24.16;61.42
68450;SHT30;67758;39.572;2.652;2024-01-16T12:50:20;24.31;61.20
68450;SHT30;67758;39.572;2.652;2024-01-16T12:52:46;24.06;62.56
68450;SHT30;67758;39.572;2.652;2024-01-16T12:55:13;23.71;63.58
68450;SHT30;67758;39.572;2.652;2024-01-16T12:57:39;23.32;64.52
68450;SHT30;67758;39.572;2.652;2024-01-16T13:00:21;22.95;65.60
68450;SHT30;67758;39.572;2.652;2024-01-16T13:02:51;22.55;64.84
68450;SHT30;67758;39.572;2.652;2024-01-16T13:05:18;22.41;66.02
68450;SHT30;67758;39.572;2.652;2024-01-16T13:07:44;22.51;66.25
68450;SHT30;67758;39.572;2.652;2024-01-16T13:10:11;22.75;65.27
68450;SHT30;67758;39.572;2.652;2024-01-16T13:12:37;22.46;64.68
68450;SHT30;67758;39.572;2.652;2024-01-16T13:15:03;22.29;65.93
68450;SHT30;67758;39.572;2.652;2024-01-16T13:17:34;22.06;65.41
68450;SHT30;67758;39.572;2.652;2024-01-16T13:20:03;22.20;65.22
68450;SHT30;67758;39.572;2.652;2024-01-16T13:22:32;22.07;65.29
68450;SHT30;67758;39.572;2.652;2024-01-16T13:24:58;22.00;65.69
68450;SHT30;67758;39.572;2.652;2024-01-16T13:27:23;22.14;65.49
68450;SHT30;67758;39.572;2.652;2024-01-16T13:29:50;21.93;65.43
68450;SHT30;67758;39.572;2.652;2024-01-16T13:32:16;21.89;65.37
68450;SHT30;67758;39.572;2.652;2024-01-16T13:34:41;21.96;65.09
68450;SHT30;67758;39.572;2.652;2024-01-16T13:37:19;22.13;64.22
68450;SHT30;67758;39.572;2.652;2024-01-16T13:39:45;22.20;63.51
68450;SHT30;67758;39.572;2.652;2024-01-16T13:42:11;22.34;63.53
68450;SHT30;67758;39.572;2.652;2024-01-16T13:44:36;22.24;63.73
68450;SHT30;67758;39.572;2.652;2024-01-16T13:47:03;22.29;63.57
68450;SHT30;67758;39.572;2.652;2024-01-16T13:49:29;22.65;63.73
68450;SHT30;67758;39.572;2.652;2024-01-16T13:51:54;23.16;62.50
68450;SHT30;67758;39.572;2.652;2024-01-16T13:54:20;23.46;61.58
68450;SHT30;67758;39.572;2.652;2024-01-16T13:56:45;23.25;61.96
68450;SHT30;67758;39.572;2.652;2024-01-16T13:59:12;23.41;60.96
68450;SHT30;67758;39.572;2.652;2024-01-16T14:01:37;23.77;60.39
68450;SHT30;67758;39.572;2.652;2024-01-16T14:04:03;23.79;59.43
68450;SHT30;67758;39.572;2.652;2024-01-16T14:06:30;23.97;59.03
68450;SHT30;67758;39.572;2.652;2024-01-16T14:08:56;23.81;59.33
68450;SHT30;67758;39.572;2.652;2024-01-16T14:11:21;24.01;58.97
68450;SHT30;67758;39.572;2.652;2024-01-16T14:13:47;23.79;58.96
68450;SHT30;67758;39.572;2.652;2024-01-16T14:16:13;24.42;57.68
68450;SHT30;67758;39.572;2.652;2024-01-16T14:18:39;23.22;64.53
68450;SHT30;67758;39.572;2.652;2024-01-16T14:21:04;21.83;68.79
68450;SHT30;67758;39.572;2.652;2024-01-16T14:23:30;21.30;70.44
68450;SHT30;67758;39.572;2.652;2024-01-16T14:25:57;20.80;71.23
68450;SHT30;67758;39.572;2.652;2024-01-16T14:28:23;20.79;71.60
68450;SHT30;67758;39.572;2.652;2024-01-16T14:30:51;20.57;73.03
68450;SHT30;67758;39.572;2.652;2024-01-16T14:33:17;19.91;76.43
68450;SHT30;67758;39.572;2.652;2024-01-16T14:35:42;19.71;77.47
68450;SHT30;67758;39.572;2.652;2024-01-16T14:38:09;19.44;77.66
68450;SHT30;67758;39.572;2.652;2024-01-16T14:40:34;19.37;77.69
68450;SHT30;67758;39.572;2.652;2024-01-16T14:43:00;19.27;77.65
68450;SHT30;67758;39.572;2.652;2024-01-16T14:45:30;19.02;78.36
68450;SHT30;67758;39.572;2.652;2024-01-16T14:47:56;19.04;78.64
68450;SHT30;67758;39.572;2.652;2024-01-16T14:50:23;18.90;78.97
68450;SHT30;67758;39.572;2.652;2024-01-16T14:52:50;18.92;79.47
68450;SHT30;67758;39.572;2.652;2024-01-16T14:55:16;18.79;80.37
68450;SHT30;67758;39.572;2.652;2024-01-16T14:57:42;18.66;81.09
68450;SHT30;67758;39.572;2.652;2024-01-16T15:00:10;18.56;81.27
68450;SHT30;67758;39.572;2.652;2024-01-16T15:02:52;18.53;81.28
68450;SHT30;67758;39.572;2.652;2024-01-16T15:05:20;18.66;80.98
68450;SHT30;67758;39.572;2.652;2024-01-16T15:07:46;18.89;80.11
68450;SHT30;67758;39.572;2.652;2024-01-16T15:10:12;19.21;78.96
68450;SHT30;67758;39.572;2.652;2024-01-16T15:12:40;19.34;78.71
68450;SHT30;67758;39.572;2.652;2024-01-16T15:15:10;19.43;77.95
68450;SHT30;67758;39.572;2.652;2024-01-16T15:17:37;19.23;79.13
68450;SHT30;67758;39.572;2.652;2024-01-16T15:20:03;19.16;79.80
68450;SHT30;67758;39.572;2.652;2024-01-16T15:22:40;19.62;78.99
68450;SHT30;67758;39.572;2.652;2024-01-16T15:25:06;20.39;76.63
68450;SHT30;67758;39.572;2.652;2024-01-16T15:27:33;20.74;75.43
68450;SHT30;67758;39.572;2.652;2024-01-16T15:29:58;20.94;75.21
68450;SHT30;67758;39.572;2.652;2024-01-16T15:32:25;20.40;76.54
68450;SHT30;67758;39.572;2.652;2024-01-16T15:34:50;20.05;77.94